Main page
METAR-TAF:

METAR-TAF

Airports :

Évreux, France

Évreux-Fauville Air Base

latitude: 49-01N, longitude: 001-13E, elevation: 141 m

Current weather observation

The report was made 44 minutes ago, at 08:30 UTC
Wind 7 kt from the South/Southwest
Temperature 12°C
Humidity 76%
Pressure 1027 hPa
Visibility 10 km or more

METAR: LFOE 290830Z AUTO 20007KT 9999 NSC 12/08 Q1027

Time: 11:14 (09:14 UTC)

Forecast

The report was made 1 hour and 14 minutes ago, at 08:00 UTC
Forecast valid from 29 at 09 UTC to 30 at 09 UTC
Wind 8 kt from the South/Southwest
Visibility 10 km or more
Broken clouds at a height of 4500 ft
Probability 30% :
Temporary
from 29 at 13 UTC to 29 at 19 UTC
Wind 10 kt from the South/Southwest with gusts up to 20 kt
Visibility: 4000 m
Scattered clouds at a height of 2000 ft
Broken clouds at a height of 3000 ft, Towering cumulus.
light rain showers

TAF: LFOE 290800Z 2909/3009 20008KT 9999 BKN045 PROB30 TEMPO 2913/2919 20010G20KT 4000 -SHRA SCT020 BKN030TCU

Weather observations and forecasts of more than 4000 airports (METAR and TAF reports).

The available stations are represented by yellow and red dots on the map.

Hover mouse over dot to see the name of the station.

Then click to see weather observations and forecasts.

To change the map : click on the green buttons with a black cross to zoom in, on the green button with a dash to zoom out, or on the green arrows for adjacent maps.


METAR-TAF: